Terminal Aerodrome Forecast
Issued by NWS Mt. Holly, NJ

Home | Current Version | Previous Version | Text Only | Print | Product List | Glossary On
Versions: 1 2 3 4 5 6 7 8 9 10 11 12 13 14 15 16 17 18 19 20 21 22 23 24 25 26 27 28
369
FTUS41 KPHI 101511 AAA
TAFPHL
TAF AMD
KPHL 101511Z 1015/1118 30012G20KT P6SM FEW050 SCT200
     FM101700 28013G20KT P6SM BKN050
     FM102200 29010KT P6SM SCT050
     FM110800 29004KT P6SM OVC120
     FM111400 20004KT P6SM BKN060 OVC100=

USA.gov is the U.S. government's official web portal to all federal, state and local government web resources and services.